createdAt,value
2018-05-07T00:01:06.233Z,12.75
2018-05-07T00:03:32.036Z,12.77
2018-05-07T00:05:58.052Z,12.71
2018-05-07T00:08:23.892Z,12.78
2018-05-07T00:10:49.744Z,12.72
2018-05-07T00:13:15.622Z,12.68
2018-05-07T00:15:41.481Z,12.69
2018-05-07T00:18:07.349Z,12.69
2018-05-07T00:20:33.273Z,12.68
2018-05-07T00:22:59.135Z,12.61
2018-05-07T00:25:24.989Z,12.56
2018-05-07T00:27:50.842Z,12.50
2018-05-07T00:30:16.716Z,12.45
2018-05-07T00:32:42.568Z,12.42
2018-05-07T00:35:08.498Z,12.35
2018-05-07T00:37:34.332Z,12.34
2018-05-07T00:40:00.170Z,12.35
2018-05-07T00:42:26.019Z,12.32
2018-05-07T00:44:51.862Z,12.29
2018-05-07T00:47:17.714Z,12.16
2018-05-07T00:49:43.564Z,12.12
2018-05-07T00:52:09.411Z,12.11
2018-05-07T00:54:47.649Z,12.05
2018-05-07T00:57:13.499Z,11.95
2018-05-07T00:59:39.337Z,11.94
2018-05-07T01:02:05.219Z,11.91
2018-05-07T01:04:31.087Z,11.84
2018-05-07T01:06:56.985Z,11.87
2018-05-07T01:09:22.851Z,11.83
2018-05-07T01:11:48.719Z,11.84
2018-05-07T01:14:14.559Z,11.77
2018-05-07T01:16:40.450Z,11.80
2018-05-07T01:19:06.304Z,11.84
2018-05-07T01:21:32.168Z,11.78
2018-05-07T01:23:58.059Z,11.79
2018-05-07T01:26:23.939Z,11.71
2018-05-07T01:28:49.788Z,11.64
2018-05-07T01:31:15.647Z,11.59
2018-05-07T01:33:41.511Z,11.54
2018-05-07T01:36:07.368Z,11.47
2018-05-07T01:38:33.216Z,11.44
2018-05-07T01:40:59.039Z,11.45
2018-05-07T01:43:24.907Z,11.46
2018-05-07T01:45:50.754Z,11.47
2018-05-07T01:48:16.612Z,11.36
2018-05-07T01:53:35.254Z,11.41
2018-05-07T01:56:01.137Z,11.34
2018-05-07T01:58:27.004Z,11.28
2018-05-07T02:00:52.863Z,11.27
2018-05-07T02:03:18.728Z,11.19
2018-05-07T02:05:44.606Z,11.13
2018-05-07T02:08:10.460Z,11.08
2018-05-07T02:10:36.330Z,11.10
2018-05-07T02:13:02.205Z,11.03
2018-05-07T02:15:28.044Z,10.95
2018-05-07T02:17:53.916Z,10.94
2018-05-07T02:20:19.774Z,10.85
2018-05-07T02:22:45.647Z,10.87
2018-05-07T02:25:11.495Z,10.88
2018-05-07T02:27:37.341Z,10.91
2018-05-07T02:30:03.237Z,10.86
2018-05-07T02:32:29.098Z,10.79
2018-05-07T02:34:54.932Z,10.78
2018-05-07T02:37:20.810Z,10.78
2018-05-07T02:39:46.667Z,10.70
2018-05-07T02:42:12.515Z,10.64
2018-05-07T02:44:38.377Z,10.57
2018-05-07T02:47:04.240Z,10.55
2018-05-07T02:49:30.105Z,10.45
2018-05-07T02:51:55.964Z,10.37
2018-05-07T02:54:21.823Z,10.42
2018-05-07T02:56:47.704Z,10.33
2018-05-07T02:59:13.560Z,10.29
2018-05-07T03:01:39.405Z,10.32
2018-05-07T03:04:05.268Z,10.34
2018-05-07T03:06:31.136Z,10.29
2018-05-07T03:08:57.000Z,10.27
2018-05-07T03:11:22.874Z,10.23
2018-05-07T03:13:48.706Z,10.22
2018-05-07T03:16:14.556Z,10.22
2018-05-07T03:18:40.432Z,10.19
2018-05-07T03:21:06.293Z,10.09
2018-05-07T03:23:32.141Z,10.03
2018-05-07T03:25:58.004Z,9.95
2018-05-07T03:28:23.871Z,9.97
2018-05-07T03:30:49.741Z,9.94
2018-05-07T03:33:15.574Z,9.95
2018-05-07T03:35:41.436Z,9.90
2018-05-07T03:38:07.273Z,9.80
2018-05-07T03:40:33.223Z,9.82
2018-05-07T03:42:59.023Z,9.85
2018-05-07T03:45:24.863Z,9.89
2018-05-07T03:47:50.710Z,9.81
2018-05-07T03:50:16.545Z,9.59
2018-05-07T03:52:42.419Z,9.70
2018-05-07T03:55:08.366Z,9.75
2018-05-07T03:57:34.211Z,9.75
2018-05-07T04:00:00.071Z,9.75
2018-05-07T04:02:25.949Z,9.77
2018-05-07T04:04:51.817Z,9.82
2018-05-07T04:07:17.830Z,9.91
2018-05-07T04:09:43.672Z,9.80
2018-05-07T04:12:09.539Z,9.84
2018-05-07T04:14:35.401Z,9.85
2018-05-07T04:17:13.636Z,9.79
2018-05-07T04:19:51.782Z,9.79
2018-05-07T04:22:29.944Z,9.84
2018-05-07T04:24:55.805Z,9.95
2018-05-07T04:27:21.641Z,9.98
2018-05-07T04:29:47.513Z,10.03
2018-05-07T04:32:13.375Z,10.00
2018-05-07T04:34:39.226Z,10.01
2018-05-07T04:37:05.055Z,10.05
2018-05-07T04:39:30.920Z,10.06
2018-05-07T04:41:56.798Z,10.13
2018-05-07T04:44:22.670Z,10.21
2018-05-07T04:46:48.537Z,10.23
2018-05-07T04:49:14.383Z,10.23
2018-05-07T04:51:40.261Z,10.29
2018-05-07T04:54:06.112Z,10.33
2018-05-07T04:56:31.956Z,10.41
2018-05-07T04:58:57.811Z,10.47
2018-05-07T05:01:23.688Z,10.48
2018-05-07T05:03:49.542Z,10.56
2018-05-07T05:06:15.452Z,10.54
2018-05-07T05:08:41.276Z,10.61
2018-05-07T05:11:07.135Z,10.65
2018-05-07T05:13:33.007Z,10.68
2018-05-07T05:15:58.837Z,10.71
2018-05-07T05:18:24.734Z,10.81
2018-05-07T05:20:50.598Z,10.85
2018-05-07T05:23:16.497Z,10.93
2018-05-07T05:25:42.344Z,10.96
2018-05-07T05:28:08.248Z,11.01
2018-05-07T05:30:34.104Z,11.07
2018-05-07T05:32:59.952Z,11.17
2018-05-07T05:35:25.794Z,11.22
2018-05-07T05:37:51.645Z,11.30
2018-05-07T05:40:17.502Z,11.42
2018-05-07T05:42:43.357Z,11.51
2018-05-07T05:45:09.208Z,11.63
2018-05-07T05:47:35.055Z,11.90
2018-05-07T05:50:00.948Z,11.97
2018-05-07T05:52:26.815Z,12.10
2018-05-07T05:54:52.673Z,12.26
2018-05-07T05:57:18.529Z,12.28
2018-05-07T05:59:44.383Z,12.37
2018-05-07T06:02:10.227Z,12.32
2018-05-07T06:04:36.085Z,12.37
2018-05-07T06:07:01.972Z,12.32
2018-05-07T06:09:27.826Z,12.38
2018-05-07T06:11:53.726Z,12.68
2018-05-07T06:14:19.570Z,12.81
2018-05-07T06:16:45.421Z,12.97
2018-05-07T06:19:11.248Z,13.15
2018-05-07T06:21:37.159Z,13.25
2018-05-07T06:24:03.026Z,13.40
2018-05-07T06:26:28.904Z,13.52
2018-05-07T06:28:54.766Z,13.59
2018-05-07T06:31:20.641Z,13.73
2018-05-07T06:33:46.512Z,13.76
2018-05-07T06:36:12.357Z,13.89
2018-05-07T06:38:38.253Z,13.80
2018-05-07T06:41:04.117Z,13.95
2018-05-07T06:43:29.969Z,13.91
2018-05-07T06:45:55.904Z,14.07
2018-05-07T06:48:21.740Z,14.11
2018-05-07T06:50:47.655Z,14.15
2018-05-07T06:53:13.489Z,14.19
2018-05-07T06:55:39.353Z,14.56
2018-05-07T06:58:05.197Z,14.49
2018-05-07T07:00:31.073Z,14.54
2018-05-07T07:02:57.125Z,14.57
2018-05-07T07:05:22.845Z,14.50
2018-05-07T07:07:48.720Z,14.53
2018-05-07T07:10:14.571Z,14.54
2018-05-07T07:12:40.456Z,14.68
2018-05-07T07:15:06.355Z,14.71
2018-05-07T07:17:32.212Z,14.69
2018-05-07T07:19:58.099Z,14.93
2018-05-07T07:22:23.949Z,14.90
2018-05-07T07:24:49.879Z,14.91
2018-05-07T07:27:15.739Z,15.29
2018-05-07T07:29:41.615Z,15.33
2018-05-07T07:32:07.476Z,15.70
2018-05-07T07:34:33.368Z,16.04
2018-05-07T07:36:59.207Z,16.12
2018-05-07T07:39:25.100Z,16.39
2018-05-07T07:41:50.942Z,16.36
2018-05-07T07:44:16.811Z,16.53
2018-05-07T07:46:42.682Z,16.59
2018-05-07T07:49:08.536Z,16.43
2018-05-07T07:51:34.388Z,16.45
2018-05-07T07:54:00.228Z,16.49
2018-05-07T07:56:26.101Z,16.57
2018-05-07T07:58:51.934Z,16.99
2018-05-07T08:01:17.795Z,17.19
2018-05-07T08:03:43.644Z,17.38
2018-05-07T08:06:09.485Z,17.56
2018-05-07T08:08:35.325Z,17.76
2018-05-07T08:11:01.222Z,17.64
2018-05-07T08:13:27.075Z,17.74
2018-05-07T08:15:52.961Z,17.99
2018-05-07T08:18:18.845Z,18.10
2018-05-07T08:20:44.748Z,18.06
2018-05-07T08:23:10.587Z,18.15
2018-05-07T08:25:36.430Z,18.27
2018-05-07T08:28:02.271Z,18.42
2018-05-07T08:30:28.172Z,18.66
2018-05-07T08:32:53.993Z,18.69
2018-05-07T08:35:19.889Z,18.67
2018-05-07T08:37:45.747Z,18.79
2018-05-07T08:40:11.617Z,18.84
2018-05-07T08:42:37.476Z,18.85
2018-05-07T08:45:03.321Z,18.85
2018-05-07T08:47:29.164Z,19.14
2018-05-07T08:49:55.010Z,19.21
2018-05-07T08:52:20.892Z,19.25
2018-05-07T08:54:46.754Z,19.04
2018-05-07T08:57:12.610Z,19.29
2018-05-07T08:59:38.462Z,19.38
2018-05-07T09:02:04.347Z,19.50
2018-05-07T09:04:30.221Z,19.48
2018-05-07T09:06:56.072Z,19.59
2018-05-07T09:09:21.961Z,19.68
2018-05-07T09:11:47.824Z,19.80
2018-05-07T09:14:13.739Z,19.97
2018-05-07T09:16:39.591Z,19.88
2018-05-07T09:19:05.432Z,19.94
2018-05-07T09:21:31.283Z,20.04
2018-05-07T09:23:57.140Z,20.17
2018-05-07T09:26:22.978Z,20.33
2018-05-07T09:28:48.877Z,20.43
2018-05-07T09:31:14.765Z,20.46
2018-05-07T09:33:40.591Z,20.48
2018-05-07T09:36:06.464Z,20.30
2018-05-07T09:38:32.340Z,20.47
2018-05-07T09:40:58.201Z,20.52
2018-05-07T09:43:24.047Z,20.75
2018-05-07T09:45:49.897Z,20.74
2018-05-07T09:48:15.779Z,20.78
2018-05-07T09:50:41.654Z,20.86
2018-05-07T09:53:07.507Z,21.02
2018-05-07T09:55:33.354Z,21.03
2018-05-07T09:58:02.223Z,21.09
2018-05-07T10:00:34.041Z,21.14
2018-05-07T10:02:59.891Z,21.21
2018-05-07T10:05:25.752Z,21.39
2018-05-07T10:07:51.611Z,21.45
2018-05-07T10:10:17.467Z,21.50
2018-05-07T10:12:43.319Z,21.69
2018-05-07T10:15:09.213Z,21.59
2018-05-07T10:17:35.084Z,21.75
2018-05-07T10:20:00.936Z,21.81
2018-05-07T10:22:26.797Z,21.81
2018-05-07T10:24:52.651Z,22.01
2018-05-07T10:27:18.567Z,22.06
2018-05-07T10:29:44.451Z,22.22
2018-05-07T10:32:10.314Z,22.21
2018-05-07T10:34:36.167Z,22.32
2018-05-07T10:37:02.022Z,22.39
2018-05-07T10:39:28.009Z,22.60
2018-05-07T10:41:53.954Z,22.73
2018-05-07T10:44:19.822Z,22.73
2018-05-07T10:46:45.682Z,22.91
2018-05-07T10:49:11.595Z,22.82
2018-05-07T10:51:37.478Z,23.07
2018-05-07T10:54:03.447Z,23.21
2018-05-07T10:56:29.361Z,23.40
2018-05-07T10:58:55.248Z,23.39
2018-05-07T11:01:21.099Z,23.53
2018-05-07T11:03:46.946Z,23.86
2018-05-07T11:06:12.806Z,24.15
2018-05-07T11:08:38.660Z,23.94
2018-05-07T11:11:04.527Z,24.58
2018-05-07T11:13:30.369Z,24.64
2018-05-07T11:15:56.251Z,24.75
2018-05-07T11:18:22.081Z,25.12
2018-05-07T11:20:47.944Z,25.51
2018-05-07T11:23:13.781Z,25.75
2018-05-07T11:25:39.655Z,25.97
2018-05-07T11:28:05.507Z,26.09
2018-05-07T11:30:31.396Z,26.32
2018-05-07T11:32:57.234Z,26.41
2018-05-07T11:35:23.080Z,26.54
2018-05-07T11:37:48.921Z,26.98
2018-05-07T11:40:14.787Z,27.26
2018-05-07T11:42:40.639Z,27.35
2018-05-07T11:45:06.487Z,27.65
2018-05-07T11:47:32.409Z,27.75
2018-05-07T11:49:58.249Z,27.75
2018-05-07T11:52:24.127Z,28.15
2018-05-07T11:54:49.986Z,27.50
2018-05-07T11:57:15.879Z,28.01
2018-05-07T11:59:41.738Z,28.42
2018-05-07T12:02:07.588Z,28.29
2018-05-07T12:04:33.444Z,28.96
2018-05-07T12:06:59.274Z,29.29
2018-05-07T12:09:25.175Z,29.39
2018-05-07T12:11:51.022Z,29.40
2018-05-07T12:14:16.914Z,29.09
2018-05-07T12:16:42.766Z,28.78
2018-05-07T12:19:08.631Z,29.40
2018-05-07T12:21:34.488Z,29.60
2018-05-07T12:24:00.403Z,29.88
2018-05-07T12:26:26.260Z,29.95
2018-05-07T12:28:52.146Z,30.13
2018-05-07T12:31:18.035Z,29.69
2018-05-07T12:33:43.889Z,29.99
2018-05-07T12:36:09.765Z,30.18
2018-05-07T12:38:35.615Z,30.03
2018-05-07T12:41:01.486Z,30.02
2018-05-07T12:43:27.337Z,30.77
2018-05-07T12:45:53.199Z,30.64
2018-05-07T12:48:19.057Z,30.81
2018-05-07T12:50:45.034Z,30.75
2018-05-07T12:53:10.889Z,30.28
2018-05-07T12:55:36.735Z,30.95
2018-05-07T12:58:02.630Z,30.81
2018-05-07T13:00:28.468Z,31.01
2018-05-07T13:02:54.326Z,30.87
2018-05-07T13:05:20.222Z,31.10
2018-05-07T13:07:46.081Z,30.95
2018-05-07T13:10:11.933Z,31.20
2018-05-07T13:12:37.790Z,31.27
2018-05-07T13:15:03.669Z,31.30
2018-05-07T13:17:29.537Z,31.14
2018-05-07T13:19:55.394Z,31.20
2018-05-07T13:22:21.313Z,31.34
2018-05-07T13:24:47.183Z,31.44
2018-05-07T13:27:13.069Z,31.06
2018-05-07T13:29:38.951Z,31.47
2018-05-07T13:32:04.835Z,31.20
2018-05-07T13:34:30.692Z,30.93
2018-05-07T13:36:56.565Z,31.20
2018-05-07T13:39:22.423Z,31.44
2018-05-07T13:41:48.266Z,31.89
2018-05-07T13:44:14.141Z,31.62
2018-05-07T13:46:39.988Z,31.30
2018-05-07T13:49:05.871Z,31.41
2018-05-07T13:51:31.744Z,31.09
2018-05-07T13:53:57.626Z,31.55
2018-05-07T13:56:23.505Z,31.36
2018-05-07T13:58:49.379Z,31.57
2018-05-07T14:01:15.247Z,31.72
2018-05-07T14:03:41.122Z,30.53
2018-05-07T14:06:06.999Z,30.10
2018-05-07T14:08:32.958Z,31.35
2018-05-07T14:10:58.769Z,31.65
2018-05-07T14:13:24.615Z,32.30
2018-05-07T14:15:50.491Z,32.32
2018-05-07T14:18:16.373Z,31.87
2018-05-07T14:20:42.256Z,31.90
2018-05-07T14:23:08.102Z,32.03
2018-05-07T14:25:33.969Z,31.77
2018-05-07T14:27:59.837Z,31.58
2018-05-07T14:30:25.703Z,32.24
2018-05-07T14:32:51.581Z,32.12
2018-05-07T14:35:17.471Z,32.07
2018-05-07T14:37:43.332Z,31.87
2018-05-07T14:40:09.201Z,31.37
2018-05-07T14:42:35.104Z,31.22
2018-05-07T14:45:00.984Z,31.58
2018-05-07T14:47:26.850Z,31.94
2018-05-07T14:49:52.700Z,32.01
2018-05-07T14:52:18.549Z,32.10
2018-05-07T14:54:44.411Z,32.05
2018-05-07T14:57:10.284Z,32.03
2018-05-07T14:59:36.162Z,32.17
2018-05-07T15:02:02.026Z,31.27
2018-05-07T15:04:27.895Z,31.42
2018-05-07T15:06:53.766Z,31.49
2018-05-07T15:09:19.664Z,31.71
2018-05-07T15:11:45.524Z,31.54
2018-05-07T15:14:22.522Z,30.88
2018-05-07T15:16:48.371Z,31.48
2018-05-07T15:19:14.251Z,30.52
2018-05-07T15:21:40.148Z,31.30
2018-05-07T15:24:05.972Z,31.61
2018-05-07T15:26:31.833Z,31.49
2018-05-07T15:28:57.709Z,31.66
2018-05-07T15:31:23.588Z,31.95
2018-05-07T15:33:49.432Z,32.37
2018-05-07T15:36:15.316Z,32.58
2018-05-07T15:38:41.199Z,32.39
2018-05-07T15:41:07.603Z,32.60
2018-05-07T15:43:33.445Z,32.81
2018-05-07T15:45:59.289Z,33.15
2018-05-07T15:48:25.150Z,33.36
2018-05-07T15:50:51.055Z,33.22
2018-05-07T15:53:16.892Z,33.15
2018-05-07T15:55:42.754Z,33.49
2018-05-07T15:58:08.662Z,33.49
2018-05-07T16:00:34.529Z,34.12
2018-05-07T16:03:00.492Z,33.89
2018-05-07T16:05:26.299Z,33.82
2018-05-07T16:07:52.175Z,34.47
2018-05-07T16:10:18.259Z,34.36
2018-05-07T16:12:44.131Z,34.48
2018-05-07T16:15:10.050Z,35.18
2018-05-07T16:17:35.931Z,34.95
2018-05-07T16:20:01.830Z,35.33
2018-05-07T16:22:27.666Z,35.57
2018-05-07T16:24:53.529Z,35.32
2018-05-07T16:27:19.382Z,35.16
2018-05-07T16:29:45.273Z,34.73
2018-05-07T16:32:11.156Z,33.87
2018-05-07T16:34:37.076Z,34.00
2018-05-07T16:37:02.942Z,33.91
2018-05-07T16:39:28.806Z,33.91
2018-05-07T16:41:54.681Z,34.08
2018-05-07T16:44:20.582Z,33.93
2018-05-07T16:46:46.462Z,33.92
2018-05-07T16:49:12.319Z,32.43
2018-05-07T16:51:38.189Z,30.73
2018-05-07T16:54:04.041Z,30.13
2018-05-07T16:56:29.943Z,29.24
2018-05-07T16:58:55.806Z,28.95
2018-05-07T17:01:21.661Z,28.66
2018-05-07T17:03:47.523Z,28.98
2018-05-07T17:06:13.401Z,29.06
2018-05-07T17:08:39.263Z,28.96
2018-05-07T17:11:05.316Z,28.68
2018-05-07T17:13:31.081Z,28.81
2018-05-07T17:15:56.939Z,28.98
2018-05-07T17:18:22.805Z,29.18
2018-05-07T17:20:48.677Z,28.67
2018-05-07T17:23:14.579Z,28.51
2018-05-07T17:25:40.470Z,27.78
2018-05-07T17:28:06.382Z,27.71
2018-05-07T17:30:32.289Z,27.25
2018-05-07T17:32:58.194Z,27.19
2018-05-07T17:35:24.146Z,27.17
2018-05-07T17:37:50.039Z,26.96
2018-05-07T17:40:15.948Z,26.64
2018-05-07T17:42:41.818Z,26.56
2018-05-07T17:45:19.987Z,26.21
2018-05-07T17:50:45.843Z,25.83
2018-05-07T17:53:11.753Z,25.72
2018-05-07T17:55:37.654Z,25.56
2018-05-07T17:58:03.557Z,25.51
2018-05-07T18:00:29.486Z,25.27
2018-05-07T18:02:55.405Z,25.16
2018-05-07T18:05:21.350Z,25.11
2018-05-07T18:07:47.213Z,24.97
2018-05-07T18:10:13.124Z,24.86
2018-05-07T18:12:39.017Z,24.63
2018-05-07T18:15:05.028Z,24.47
2018-05-07T18:17:31.140Z,24.37
2018-05-07T18:19:56.862Z,24.18
2018-05-07T18:22:22.753Z,24.07
2018-05-07T18:24:48.743Z,23.80
2018-05-07T18:27:14.710Z,23.65
2018-05-07T18:29:40.609Z,23.46
2018-05-07T18:32:06.575Z,23.32
2018-05-07T18:34:32.507Z,23.14
2018-05-07T18:36:58.449Z,23.03
2018-05-07T18:39:24.341Z,22.89
2018-05-07T18:41:50.217Z,22.81
2018-05-07T18:44:16.102Z,22.69
2018-05-07T18:46:42.003Z,22.40
2018-05-07T18:49:07.868Z,22.19
2018-05-07T18:51:33.780Z,22.07
2018-05-07T18:53:59.742Z,21.97
2018-05-07T18:56:25.642Z,21.90
2018-05-07T18:58:51.628Z,21.75
2018-05-07T19:01:17.520Z,21.72
2018-05-07T19:03:43.473Z,21.49
2018-05-07T19:06:09.410Z,21.33
2018-05-07T19:08:35.354Z,21.19
2018-05-07T19:11:01.232Z,21.07
2018-05-07T19:13:27.191Z,21.05
2018-05-07T19:15:53.122Z,20.88
2018-05-07T19:18:19.025Z,20.87
2018-05-07T19:20:45.004Z,20.84
2018-05-07T19:23:10.901Z,20.64
2018-05-07T19:25:36.876Z,20.59
2018-05-07T19:28:02.834Z,20.47
2018-05-07T19:30:28.779Z,20.37
2018-05-07T19:32:54.692Z,20.17
2018-05-07T19:35:20.587Z,20.15
2018-05-07T19:37:46.671Z,20.05
2018-05-07T19:40:12.630Z,19.93
2018-05-07T19:42:38.467Z,19.94
2018-05-07T19:45:04.443Z,19.86
2018-05-07T19:47:30.319Z,19.76
2018-05-07T19:49:56.225Z,19.74
2018-05-07T19:52:22.094Z,19.63
2018-05-07T19:54:48.559Z,19.50
2018-05-07T19:57:14.449Z,19.48
2018-05-07T19:59:40.367Z,19.46
2018-05-07T20:02:06.321Z,19.42
2018-05-07T20:04:32.200Z,19.44
2018-05-07T20:06:58.141Z,19.35
2018-05-07T20:09:24.369Z,19.28
2018-05-07T20:11:50.323Z,19.14
2018-05-07T20:14:16.244Z,19.13
2018-05-07T20:16:42.159Z,19.14
2018-05-07T20:19:08.079Z,19.02
2018-05-07T20:21:34.364Z,18.91
2018-05-07T20:24:00.300Z,18.85
2018-05-07T20:26:26.170Z,18.74
2018-05-07T20:28:52.177Z,18.77
2018-05-07T20:31:18.100Z,18.73
2018-05-07T20:33:44.045Z,18.62
2018-05-07T20:36:09.958Z,18.54
2018-05-07T20:38:35.885Z,18.48
2018-05-07T20:41:01.913Z,18.40
2018-05-07T20:43:27.820Z,18.42
2018-05-07T20:45:53.701Z,18.31
2018-05-07T20:48:19.613Z,18.23
2018-05-07T20:50:45.546Z,18.19
2018-05-07T20:53:11.404Z,18.11
2018-05-07T20:55:37.289Z,18.02
2018-05-07T20:58:03.232Z,18.02
2018-05-07T21:00:29.154Z,17.99
2018-05-07T21:02:55.010Z,17.92
2018-05-07T21:05:20.916Z,17.87
2018-05-07T21:07:46.840Z,17.91
2018-05-07T21:10:12.714Z,17.86
2018-05-07T21:12:38.613Z,17.79
2018-05-07T21:15:04.508Z,17.71
2018-05-07T21:17:30.384Z,17.74
2018-05-07T21:19:56.226Z,17.78
2018-05-07T21:22:22.142Z,17.78
2018-05-07T21:24:48.021Z,17.78
2018-05-07T21:27:13.892Z,17.83
2018-05-07T21:29:39.753Z,17.76
2018-05-07T21:32:05.632Z,17.73
2018-05-07T21:34:31.487Z,17.72
2018-05-07T21:36:57.357Z,17.69
2018-05-07T21:39:23.222Z,17.61
2018-05-07T21:41:49.073Z,17.72
2018-05-07T21:44:14.930Z,17.71
2018-05-07T21:46:40.773Z,17.64
2018-05-07T21:49:06.629Z,17.56
2018-05-07T21:51:32.470Z,17.56
2018-05-07T21:53:58.317Z,17.49
2018-05-07T21:56:24.141Z,17.33
2018-05-07T21:58:49.972Z,17.31
2018-05-07T22:01:15.823Z,17.35
2018-05-07T22:03:41.665Z,17.24
2018-05-07T22:06:07.520Z,17.19
2018-05-07T22:08:33.373Z,17.22
2018-05-07T22:10:59.233Z,17.18
2018-05-07T22:13:25.100Z,17.19
2018-05-07T22:15:50.979Z,17.20
2018-05-07T22:18:16.822Z,17.02
2018-05-07T22:20:42.684Z,17.07
2018-05-07T22:23:08.570Z,17.02
2018-05-07T22:25:34.411Z,17.03
2018-05-07T22:28:00.261Z,17.05
2018-05-07T22:30:26.137Z,17.01
2018-05-07T22:32:51.982Z,17.07
2018-05-07T22:35:17.833Z,17.10
2018-05-07T22:37:43.713Z,17.09
2018-05-07T22:40:09.578Z,17.13
2018-05-07T22:42:35.832Z,17.09
2018-05-07T22:45:01.670Z,17.08
2018-05-07T22:47:27.583Z,16.95
2018-05-07T22:49:53.426Z,16.85
2018-05-07T22:52:19.304Z,16.96
2018-05-07T22:54:45.178Z,16.89
2018-05-07T22:57:11.033Z,16.89
2018-05-07T22:59:36.905Z,16.85
2018-05-07T23:02:02.751Z,16.78
2018-05-07T23:04:28.583Z,16.75
2018-05-07T23:06:54.424Z,16.62
2018-05-07T23:09:20.272Z,16.62
2018-05-07T23:11:46.117Z,16.63
2018-05-07T23:14:11.987Z,16.58
2018-05-07T23:16:37.826Z,16.54
2018-05-07T23:19:03.701Z,16.47
2018-05-07T23:21:29.539Z,16.48
2018-05-07T23:23:55.373Z,16.45
2018-05-07T23:26:21.224Z,16.47
2018-05-07T23:28:47.057Z,16.40
2018-05-07T23:31:12.913Z,16.39
2018-05-07T23:33:38.794Z,16.41
2018-05-07T23:36:04.668Z,16.38
2018-05-07T23:38:30.522Z,16.40
2018-05-07T23:40:56.375Z,16.35
2018-05-07T23:43:22.231Z,16.37
2018-05-07T23:45:48.134Z,16.39
2018-05-07T23:48:13.974Z,16.19
2018-05-07T23:50:39.844Z,16.09
2018-05-07T23:53:05.695Z,16.02
2018-05-07T23:55:31.552Z,15.94
2018-05-07T23:57:57.392Z,15.79
